Oakland, Louisiana
Current Conditions -  °F | °C
As of 6:15 AM on Thursday 29 Jan 2015 (Local Time) from KBQP Reporting Station
Scattered Clouds Scattered Clouds  
Wind Chill: 53°   Ceiling: Unl
Heat Index: 53°   Visibility: 10mi
Dew Point: 50°   Wind: 5mph
Humidity: 89%   Direction: 210°SSW
Pressure: 30.14"   Gusts: NA
Location:  32.906°N, 92.243°W
Report Text: KBQP 291215Z AUTO 21004KT 10SM SCT110 12/10 A3014 RMK AO2 T01170100
Loading
Personal Weather Stations






























Interactive Weather Map New forecast layout! Learn more

10-Day Weather Forecast

Advertisements
Track Severe Weather on mobile